Time;durP1;ratioP1;P1;durP2;ratioP2;P2;SDS_P1;SDS_P2;PMS_P1;PMS_P2;Temp;Humidity;BMP_temperature;BMP_pressure;BME280_temperature;BME280_humidity;BME280_pressure;Samples;Min_cycle;Max_cycle;Signal;HPM_P1;HPM_P2
2022/06/27 00:01:20;;;;;;;12.50;11.30;;;24.40;1.00;;;;;;5070667;28;21001;-83
2022/06/27 00:03:47;;;;;;;12.57;11.37;;;24.40;1.00;;;;;;5050174;28;20905;-83
2022/06/27 00:06:19;;;;;;;12.90;11.47;;;24.30;1.00;;;;;;5046379;28;20464;-83
2022/06/27 00:08:48;;;;;;;12.50;11.03;;;24.30;1.00;;;;;;5047269;28;20453;-83
2022/06/27 00:11:17;;;;;;;12.63;11.43;;;24.30;1.00;;;;;;5047909;28;20496;-83
2022/06/27 00:13:46;;;;;;;14.70;12.27;;;24.30;1.00;;;;;;5047438;28;20442;-83
2022/06/27 00:16:16;;;;;;;13.50;12.10;;;24.30;1.00;;;;;;5051725;28;20900;-82
2022/06/27 00:18:43;;;;;;;14.30;11.80;;;24.20;1.00;;;;;;5039270;28;20559;-82
2022/06/27 00:21:11;;;;;;;12.87;11.67;;;24.20;1.00;;;;;;5064794;28;21002;-82
2022/06/27 00:23:38;;;;;;;12.83;11.60;;;24.20;1.00;;;;;;5050281;28;20473;-83
2022/06/27 00:26:05;;;;;;;13.40;12.00;;;24.20;1.00;;;;;;5051161;28;20422;-82
2022/06/27 00:28:36;;;;;;;13.30;12.00;;;24.10;1.00;;;;;;5058505;28;20455;-81
2022/06/27 00:31:06;;;;;;;13.87;12.57;;;24.10;1.00;;;;;;5038108;28;20428;-83
2022/06/27 00:33:33;;;;;;;14.57;13.17;;;24.10;1.00;;;;;;5039198;28;20418;-81
2022/06/27 00:36:03;;;;;;;13.93;12.53;;;24.10;1.00;;;;;;5048308;28;20430;-83
2022/06/27 00:38:30;;;;;;;13.77;12.47;;;24.00;1.00;;;;;;5068079;28;20615;-83
2022/06/27 00:40:57;;;;;;;13.70;12.50;;;24.10;1.00;;;;;;5048851;28;20555;-84
2022/06/27 00:43:24;;;;;;;14.50;13.20;;;24.10;1.00;;;;;;5051217;28;20484;-84
2022/06/27 00:45:52;;;;;;;13.33;12.07;;;24.10;1.00;;;;;;5044665;28;20496;-83
2022/06/27 00:48:20;;;;;;;14.80;13.30;;;24.10;1.00;;;;;;5046587;28;20465;-83
2022/06/27 00:50:47;;;;;;;15.17;13.70;;;24.10;1.00;;;;;;5050152;28;21133;-84
2022/06/27 00:53:16;;;;;;;16.90;15.40;;;24.10;1.00;;;;;;5048959;28;20458;-83
2022/06/27 00:55:45;;;;;;;14.10;12.80;;;24.10;1.00;;;;;;5045967;28;20555;-83
2022/06/27 00:58:12;;;;;;;14.10;12.80;;;24.10;1.00;;;;;;5045808;28;20466;-83
2022/06/27 01:00:40;;;;;;;14.50;13.10;;;24.10;1.00;;;;;;5045080;28;20500;-83
2022/06/27 01:03:07;;;;;;;14.60;13.30;;;24.10;1.00;;;;;;5050820;28;20460;-83
2022/06/27 01:05:35;;;;;;;14.67;13.20;;;24.00;1.00;;;;;;5047889;28;20456;-84
2022/06/27 01:08:02;;;;;;;14.37;13.07;;;24.00;1.00;;;;;;5049316;28;20463;-83
2022/06/27 01:10:30;;;;;;;13.80;12.50;;;23.90;1.00;;;;;;5047283;28;21324;-83
2022/06/27 01:12:57;;;;;;;13.97;12.63;;;23.90;1.00;;;;;;5048341;28;20559;-83
2022/06/27 01:15:25;;;;;;;14.80;13.30;;;23.90;1.00;;;;;;5036663;28;20463;-82
2022/06/27 01:17:53;;;;;;;14.60;13.30;;;23.90;1.00;;;;;;5087866;28;20445;-82
2022/06/27 01:20:21;;;;;;;15.57;14.17;;;23.90;1.00;;;;;;5065188;28;20458;-82
2022/06/27 01:22:50;;;;;;;15.83;14.13;;;23.80;1.00;;;;;;5064619;28;20435;-83
2022/06/27 01:25:21;;;;;;;15.57;13.97;;;23.70;1.00;;;;;;5057066;28;20454;-82
2022/06/27 01:27:48;;;;;;;16.50;14.90;;;23.70;1.00;;;;;;5051277;28;20411;-83
2022/06/27 01:30:15;;;;;;;16.27;14.67;;;23.70;1.00;;;;;;5049762;28;20499;-84
2022/06/27 01:32:42;;;;;;;15.67;14.27;;;23.60;1.00;;;;;;5045949;28;21251;-83
2022/06/27 01:35:11;;;;;;;14.50;13.10;;;23.60;1.00;;;;;;5044398;28;20936;-83
2022/06/27 01:37:38;;;;;;;16.40;14.90;;;23.60;1.00;;;;;;5045859;27;20528;-82
2022/06/27 01:40:08;;;;;;;15.20;13.80;;;23.50;1.00;;;;;;5049252;28;20986;-82
2022/06/27 01:42:35;;;;;;;14.90;13.50;;;23.50;1.00;;;;;;5046123;28;20453;-83
2022/06/27 01:45:03;;;;;;;16.83;15.03;;;23.50;1.00;;;;;;5051379;28;20452;-83
2022/06/27 01:47:30;;;;;;;15.17;13.77;;;23.50;1.00;;;;;;5030989;28;20531;-83
2022/06/27 01:49:57;;;;;;;15.13;13.73;;;23.50;1.00;;;;;;5046646;28;20460;-83
2022/06/27 01:52:25;;;;;;;16.43;14.87;;;23.50;1.00;;;;;;5049800;28;20462;-83
2022/06/27 01:54:55;;;;;;;15.40;14.00;;;23.50;1.00;;;;;;5049097;28;20507;-83
2022/06/27 01:57:23;;;;;;;16.63;15.03;;;23.50;1.00;;;;;;5053147;28;21260;-83
2022/06/27 01:59:57;;;;;;;16.37;14.77;;;23.40;1.00;;;;;;5062676;28;20551;-83
2022/06/27 02:02:25;;;;;;;16.57;13.87;;;23.40;1.00;;;;;;5037978;28;20459;-83
2022/06/27 02:04:55;;;;;;;15.80;14.30;;;23.40;1.00;;;;;;5046558;28;20530;-83
2022/06/27 02:07:24;;;;;;;17.07;15.47;;;23.30;1.00;;;;;;5044434;28;20945;-84
2022/06/27 02:09:55;;;;;;;17.57;15.93;;;23.30;1.00;;;;;;5049044;28;20983;-83
2022/06/27 02:12:28;;;;;;;17.80;15.93;;;23.30;1.00;;;;;;5043836;28;21214;-84
2022/06/27 02:14:55;;;;;;;16.30;14.80;;;23.30;1.00;;;;;;5053197;28;20922;-85
2022/06/27 02:17:23;;;;;;;16.07;14.57;;;23.20;1.00;;;;;;5023747;28;20454;-84
2022/06/27 02:19:50;;;;;;;17.00;15.30;;;23.10;1.00;;;;;;5050059;28;20480;-84
2022/06/27 02:22:17;;;;;;;16.07;14.57;;;23.10;1.00;;;;;;5047928;28;20647;-82
2022/06/27 02:24:44;;;;;;;16.17;14.53;;;23.00;1.00;;;;;;5050315;28;20452;-84
2022/06/27 02:27:12;;;;;;;17.13;15.47;;;23.00;1.00;;;;;;5054558;27;20562;-84
2022/06/27 02:29:40;;;;;;;17.00;15.30;;;23.00;1.00;;;;;;5056460;28;20470;-83
2022/06/27 02:32:10;;;;;;;19.20;17.30;;;22.90;1.00;;;;;;5050980;28;20448;-84
2022/06/27 02:34:39;;;;;;;17.93;16.33;;;22.90;1.00;;;;;;5053325;28;20464;-83
2022/06/27 02:37:08;;;;;;;17.23;15.57;;;22.80;1.00;;;;;;5057426;28;20900;-82
2022/06/27 02:39:42;;;;;;;16.53;14.90;;;22.80;1.00;;;;;;5047479;28;21013;-82
2022/06/27 02:42:11;;;;;;;18.43;16.70;;;22.80;1.00;;;;;;5047166;28;20524;-83
2022/06/27 02:44:40;;;;;;;18.93;17.27;;;22.80;1.00;;;;;;5063744;27;20547;-84
2022/06/27 02:47:08;;;;;;;17.83;16.23;;;22.80;1.00;;;;;;5047396;28;20658;-83
2022/06/27 02:49:37;;;;;;;19.77;17.97;;;22.80;1.00;;;;;;5058374;28;20547;-83
2022/06/27 02:52:10;;;;;;;18.13;16.40;;;22.70;1.00;;;;;;5051153;28;20463;-84
2022/06/27 02:54:42;;;;;;;18.80;17.03;;;22.60;1.00;;;;;;5064575;28;20895;-83
2022/06/27 02:57:20;;;;;;;19.07;17.17;;;22.60;1.00;;;;;;5052110;28;20459;-83
2022/06/27 02:59:53;;;;;;;18.67;17.00;;;22.70;1.00;;;;;;5045571;28;20468;-84
2022/06/27 03:02:20;;;;;;;19.40;17.67;;;22.70;1.00;;;;;;5037823;27;20951;-82
2022/06/27 03:04:48;;;;;;;18.83;16.77;;;22.60;1.00;;;;;;5048306;28;20466;-84
2022/06/27 03:07:21;;;;;;;18.97;17.37;;;22.70;1.00;;;;;;5051685;28;20541;-83
2022/06/27 03:09:48;;;;;;;19.27;17.30;;;22.60;1.00;;;;;;5042660;28;20920;-84
2022/06/27 03:12:16;;;;;;;18.80;16.93;;;22.60;1.00;;;;;;5042064;28;20459;-84
2022/06/27 03:14:44;;;;;;;19.87;18.07;;;22.60;1.00;;;;;;5053653;28;20464;-83
2022/06/27 03:17:12;;;;;;;20.50;18.60;;;22.60;1.00;;;;;;5038742;28;20819;-85
2022/06/27 03:19:39;;;;;;;18.73;16.93;;;22.60;1.00;;;;;;5048202;28;20436;-84
2022/06/27 03:22:06;;;;;;;19.40;17.70;;;22.60;1.00;;;;;;5037131;28;20483;-82
2022/06/27 03:24:33;;;;;;;20.27;18.37;;;22.60;1.00;;;;;;5039057;28;20960;-83
2022/06/27 03:27:00;;;;;;;20.90;19.00;;;22.60;1.00;;;;;;5052959;28;20539;-83
2022/06/27 03:29:27;;;;;;;21.60;19.80;;;22.60;1.00;;;;;;5051981;28;20524;-84
2022/06/27 03:31:56;;;;;;;22.37;20.17;;;22.60;1.00;;;;;;5055036;28;20456;-83
2022/06/27 03:34:25;;;;;;;21.60;19.57;;;22.50;1.00;;;;;;5046464;28;20425;-83
2022/06/27 03:36:56;;;;;;;21.03;19.13;;;22.50;1.00;;;;;;5055347;28;20471;-84
2022/06/27 03:39:24;;;;;;;21.17;19.10;;;22.50;1.00;;;;;;5050324;28;20508;-83
2022/06/27 03:41:52;;;;;;;23.17;20.97;;;22.50;1.00;;;;;;5054290;28;20451;-84
2022/06/27 03:44:21;;;;;;;22.13;20.13;;;22.50;1.00;;;;;;5073263;28;21010;-83
2022/06/27 03:46:48;;;;;;;25.97;21.00;;;22.50;1.00;;;;;;5055639;28;20415;-83
2022/06/27 03:52:07;;;;;;;22.83;19.87;;;22.50;1.00;;;;;;5037725;28;20515;-84
2022/06/27 03:54:36;;;;;;;23.30;21.20;;;22.50;1.00;;;;;;5051736;28;20442;-83
2022/06/27 03:57:03;;;;;;;21.73;19.70;;;22.40;1.00;;;;;;5043985;28;20436;-84
2022/06/27 03:59:30;;;;;;;20.87;18.97;;;22.40;1.00;;;;;;5055683;28;20641;-84
2022/06/27 04:01:57;;;;;;;23.13;20.93;;;22.50;1.00;;;;;;5046356;28;20457;-84
2022/06/27 04:04:24;;;;;;;23.20;21.00;;;22.50;1.00;;;;;;5048452;28;20545;-83
2022/06/27 04:07:00;;;;;;;23.67;21.30;;;22.50;1.00;;;;;;5065082;28;20505;-83
2022/06/27 04:09:28;;;;;;;23.57;21.47;;;22.50;1.00;;;;;;5067405;27;20482;-83
2022/06/27 04:12:00;;;;;;;24.83;22.43;;;22.60;1.00;;;;;;5051726;28;20452;-83
2022/06/27 04:14:28;;;;;;;22.43;20.43;;;22.60;1.00;;;;;;5051166;27;20471;-83
2022/06/27 04:16:56;;;;;;;23.00;20.80;;;22.50;1.00;;;;;;5052142;28;20523;-83
2022/06/27 04:19:25;;;;;;;23.53;21.33;;;22.60;1.00;;;;;;5074758;27;20556;-83
2022/06/27 04:22:01;;;;;;;27.53;22.47;;;22.60;1.00;;;;;;5043818;28;20943;-84
2022/06/27 04:24:30;;;;;;;24.00;21.50;;;22.70;1.00;;;;;;5037150;28;20657;-82
2022/06/27 04:26:59;;;;;;;25.40;19.60;;;22.70;1.00;;;;;;5078925;27;20468;-85
2022/06/27 04:29:26;;;;;;;28.37;25.77;;;22.70;1.00;;;;;;5046395;27;21022;-86
2022/06/27 04:31:59;;;;;;;25.63;23.37;;;22.80;1.00;;;;;;5070806;28;20998;-85
2022/06/27 04:34:28;;;;;;;23.20;21.20;;;22.80;1.00;;;;;;5073910;27;20578;-85
2022/06/27 04:36:58;;;;;;;22.67;19.93;;;22.90;1.00;;;;;;5069720;28;20485;-85
2022/06/27 04:39:25;;;;;;;24.30;22.17;;;22.90;1.00;;;;;;5052137;28;20602;-81
2022/06/27 04:42:01;;;;;;;23.00;21.00;;;22.90;1.00;;;;;;5046161;28;21088;-83
2022/06/27 04:44:28;;;;;;;25.17;22.67;;;23.00;1.00;;;;;;5061318;28;20458;-82
2022/06/27 04:46:56;;;;;;;22.67;20.77;;;23.00;1.00;;;;;;5053745;28;20434;-82
2022/06/27 04:49:24;;;;;;;23.13;21.00;;;23.10;1.00;;;;;;5071125;28;20472;-82
2022/06/27 04:51:55;;;;;;;23.47;21.37;;;23.10;1.00;;;;;;5052238;28;20460;-84
2022/06/27 04:54:25;;;;;;;24.83;22.63;;;23.10;1.00;;;;;;5060560;28;20427;-85
2022/06/27 04:57:04;;;;;;;22.83;20.73;;;23.10;1.00;;;;;;5055897;28;20500;-85
2022/06/27 04:59:31;;;;;;;23.00;20.93;;;23.20;1.00;;;;;;5046975;28;20448;-86
2022/06/27 05:01:58;;;;;;;23.83;21.83;;;23.30;1.00;;;;;;5054907;28;20431;-84
2022/06/27 05:04:27;;;;;;;22.63;20.70;;;23.30;1.00;;;;;;5029080;28;20439;-83
2022/06/27 05:06:56;;;;;;;22.93;20.93;;;23.40;1.00;;;;;;5034208;28;20566;-83
2022/06/27 05:09:28;;;;;;;26.13;23.60;;;23.50;1.00;;;;;;5058581;28;20485;-84
2022/06/27 05:11:56;;;;;;;21.93;20.03;;;23.60;1.00;;;;;;5055400;28;20452;-76
2022/06/27 05:14:24;;;;;;;22.97;20.97;;;23.80;1.00;;;;;;5045383;28;20492;-76
2022/06/27 05:16:51;;;;;;;24.50;22.10;;;23.90;1.00;;;;;;5044637;28;20468;-76
2022/06/27 05:19:19;;;;;;;23.40;21.20;;;24.00;1.00;;;;;;5037453;28;20481;-77
2022/06/27 05:21:51;;;;;;;25.10;22.80;;;24.10;1.00;;;;;;5046080;28;20598;-77
2022/06/27 05:24:19;;;;;;;22.90;20.97;;;24.20;1.00;;;;;;5047596;28;20472;-76
2022/06/27 05:26:46;;;;;;;22.90;20.90;;;24.30;1.00;;;;;;5042056;28;20577;-76
2022/06/27 05:29:15;;;;;;;20.00;18.30;;;24.40;1.00;;;;;;5046235;28;20441;-77
2022/06/27 05:31:41;;;;;;;25.27;23.07;;;24.50;1.00;;;;;;5046967;28;21108;-76
2022/06/27 05:34:08;;;;;;;23.00;20.90;;;24.50;1.00;;;;;;5044692;28;20585;-77
2022/06/27 05:36:35;;;;;;;21.63;19.83;;;24.70;1.00;;;;;;5043668;28;20464;-80
2022/06/27 05:39:02;;;;;;;22.00;19.80;;;24.70;1.00;;;;;;5045544;28;20566;-79
2022/06/27 05:41:30;;;;;;;20.47;18.63;;;24.80;1.00;;;;;;5040945;28;20475;-78
2022/06/27 05:43:57;;;;;;;19.97;18.23;;;24.90;1.00;;;;;;5072669;28;20535;-77
2022/06/27 05:46:25;;;;;;;28.83;22.10;;;25.10;1.00;;;;;;5043757;28;20472;-77
2022/06/27 05:48:53;;;;;;;21.43;19.63;;;25.20;1.00;;;;;;5045449;28;20468;-77
2022/06/27 05:51:20;;;;;;;20.73;19.00;;;25.10;1.00;;;;;;5041988;28;20488;-78
2022/06/27 05:53:49;;;;;;;20.20;18.50;;;25.10;1.00;;;;;;5046511;28;20445;-78
2022/06/27 05:56:16;;;;;;;19.97;18.23;;;25.20;1.00;;;;;;5043402;28;20465;-78
2022/06/27 05:58:44;;;;;;;21.00;18.90;;;25.50;1.00;;;;;;5043363;28;20519;-83
2022/06/27 06:01:11;;;;;;;19.87;18.17;;;25.70;1.00;;;;;;5048260;28;20550;-78
2022/06/27 06:03:39;;;;;;;20.30;18.50;;;25.90;1.00;;;;;;5043628;28;20463;-78
2022/06/27 06:06:06;;;;;;;17.50;15.83;;;26.00;1.00;;;;;;5043830;28;21268;-76
2022/06/27 06:08:36;;;;;;;20.00;17.80;;;26.10;1.00;;;;;;5043077;28;20859;-78
2022/06/27 06:11:03;;;;;;;19.17;17.47;;;26.20;1.00;;;;;;5046854;28;20461;-77
2022/06/27 06:13:30;;;;;;;18.13;16.53;;;26.30;1.00;;;;;;5044756;27;20568;-77
2022/06/27 06:15:57;;;;;;;18.30;16.60;;;26.30;1.00;;;;;;5042876;28;20465;-76
2022/06/27 06:18:24;;;;;;;17.90;16.30;;;26.30;1.00;;;;;;5045083;28;20444;-77
2022/06/27 06:20:53;;;;;;;17.93;16.23;;;26.30;1.00;;;;;;5047758;28;20478;-81
2022/06/27 06:23:20;;;;;;;18.20;16.60;;;26.30;1.00;;;;;;5028299;28;20623;-78
2022/06/27 06:25:46;;;;;;;17.97;16.27;;;26.40;1.00;;;;;;5045371;28;20469;-79
2022/06/27 06:28:15;;;;;;;17.73;15.93;;;26.50;1.00;;;;;;5042510;28;20473;-78
2022/06/27 06:30:42;;;;;;;17.63;15.93;;;26.60;1.00;;;;;;5044528;28;20542;-79
2022/06/27 06:33:09;;;;;;;15.80;14.30;;;26.70;1.00;;;;;;5049248;28;20476;-79
2022/06/27 06:35:35;;;;;;;18.40;16.70;;;26.80;1.00;;;;;;5047552;27;20907;-79
2022/06/27 06:38:05;;;;;;;17.40;15.80;;;27.10;1.00;;;;;;5040613;28;20464;-78
2022/06/27 06:40:32;;;;;;;14.77;13.27;;;27.20;1.00;;;;;;5043819;28;20559;-77
2022/06/27 06:43:00;;;;;;;15.90;14.40;;;27.30;1.00;;;;;;5048419;28;20496;-80
2022/06/27 06:45:29;;;;;;;15.57;14.13;;;27.20;1.00;;;;;;5042101;28;20404;-79
2022/06/27 06:47:56;;;;;;;14.37;12.97;;;27.30;1.00;;;;;;5044055;28;20484;-77
2022/06/27 06:50:23;;;;;;;15.23;13.57;;;27.40;1.00;;;;;;5042445;28;20514;-81
2022/06/27 06:52:52;;;;;;;14.73;13.37;;;27.50;1.00;;;;;;5044651;28;20466;-79
2022/06/27 06:55:24;;;;;;;14.67;12.80;;;27.60;1.00;;;;;;5043608;28;20469;-80
2022/06/27 06:57:51;;;;;;;12.87;11.53;;;27.80;1.00;;;;;;5048562;28;20475;-79
2022/06/27 07:00:19;;;;;;;13.97;12.67;;;27.80;1.00;;;;;;5045939;28;20468;-79
2022/06/27 07:02:48;;;;;;;12.80;11.60;;;27.80;1.00;;;;;;5049763;28;20462;-79
2022/06/27 07:05:16;;;;;;;11.47;10.33;;;28.00;1.00;;;;;;5049863;28;21184;-77
2022/06/27 07:07:43;;;;;;;13.47;10.80;;;28.10;1.00;;;;;;5036458;28;20983;-79
2022/06/27 07:10:11;;;;;;;14.30;11.50;;;28.30;1.00;;;;;;5048344;28;20571;-78
2022/06/27 07:12:41;;;;;;;11.90;10.70;;;28.30;1.00;;;;;;5036899;28;20863;-77
2022/06/27 07:15:11;;;;;;;10.80;9.90;;;28.40;1.00;;;;;;5047621;28;20457;-78
2022/06/27 07:17:42;;;;;;;12.63;11.53;;;28.60;1.00;;;;;;5048038;28;20455;-78
2022/06/27 07:20:11;;;;;;;12.93;10.90;;;28.70;1.00;;;;;;5045532;28;20460;-79
2022/06/27 07:22:38;;;;;;;13.13;10.83;;;28.80;1.00;;;;;;5046623;28;20948;-79
2022/06/27 07:25:09;;;;;;;11.47;10.23;;;28.90;1.00;;;;;;5050436;28;20591;-77
2022/06/27 07:27:36;;;;;;;12.30;10.83;;;29.00;1.00;;;;;;5045539;28;20866;-78
2022/06/27 07:30:09;;;;;;;10.40;9.40;;;29.20;1.00;;;;;;5044547;28;21960;-80
2022/06/27 07:32:36;;;;;;;10.13;9.17;;;29.20;1.00;;;;;;5044260;28;20523;-79
2022/06/27 07:35:05;;;;;;;11.13;10.03;;;29.30;1.00;;;;;;5048787;28;20462;-79
2022/06/27 07:37:34;;;;;;;10.77;9.47;;;29.40;1.00;;;;;;5045731;28;20504;-78
2022/06/27 07:40:06;;;;;;;9.90;8.63;;;29.50;1.00;;;;;;5051525;28;20456;-80
2022/06/27 07:42:35;;;;;;;9.03;8.13;;;29.70;1.00;;;;;;5051940;28;20436;-80
2022/06/27 07:45:04;;;;;;;9.70;8.80;;;29.80;1.00;;;;;;5037841;28;20417;-78
2022/06/27 07:47:31;;;;;;;10.00;8.47;;;29.80;1.00;;;;;;5052447;28;20444;-78
2022/06/27 07:49:58;;;;;;;9.83;8.57;;;29.90;1.00;;;;;;5048722;28;20448;-79
2022/06/27 07:52:25;;;;;;;9.23;8.43;;;29.90;1.00;;;;;;5052362;28;20562;-82
2022/06/27 07:54:52;;;;;;;11.20;9.30;;;30.10;1.00;;;;;;5047598;28;20492;-79
2022/06/27 07:57:19;;;;;;;9.13;8.23;;;30.10;1.00;;;;;;5046431;28;21066;-79
2022/06/27 07:59:47;;;;;;;10.23;9.23;;;30.20;1.00;;;;;;5046817;28;20995;-78
2022/06/27 08:02:15;;;;;;;10.63;9.63;;;30.40;1.00;;;;;;5050599;28;20480;-77
2022/06/27 08:04:44;;;;;;;8.77;7.97;;;30.50;1.00;;;;;;5045336;28;21856;-79
2022/06/27 08:07:11;;;;;;;7.57;6.87;;;30.70;1.00;;;;;;5051252;28;20459;-78
2022/06/27 08:09:39;;;;;;;7.73;6.43;;;30.70;1.00;;;;;;5050304;28;20471;-80
2022/06/27 08:12:06;;;;;;;7.13;6.23;;;30.80;1.00;;;;;;5052142;28;21030;-78
2022/06/27 08:14:34;;;;;;;8.53;7.33;;;30.90;1.00;;;;;;5051217;28;20462;-80
2022/06/27 08:17:01;;;;;;;10.47;6.03;;;31.10;1.00;;;;;;5050251;28;20464;-78
2022/06/27 08:19:30;;;;;;;10.18;6.93;;;31.20;1.00;;;;;;5048105;27;20419;-81
2022/06/27 08:21:58;;;;;;;7.97;6.33;;;31.30;1.00;;;;;;5053761;28;20239;-77
2022/06/27 08:24:24;;;;;;;10.70;6.57;;;31.30;1.00;;;;;;5057940;28;20459;-80
2022/06/27 08:26:59;;;;;;;7.50;6.77;;;31.40;1.00;;;;;;5062784;28;20440;-77
2022/06/27 08:29:27;;;;;;;9.53;6.57;;;31.30;1.00;;;;;;5041236;28;20468;-79
2022/06/27 08:31:55;;;;;;;7.90;6.50;;;31.40;1.00;;;;;;5039982;28;20457;-80
2022/06/27 08:34:23;;;;;;;7.50;6.80;;;31.50;1.00;;;;;;5029076;27;20513;-79
2022/06/27 08:36:52;;;;;;;9.57;6.97;;;31.60;1.00;;;;;;5041359;28;20550;-80
2022/06/27 08:39:18;;;;;;;20.10;7.90;;;31.70;1.00;;;;;;5048962;28;20464;-79
2022/06/27 08:41:46;;;;;;;15.00;7.33;;;31.90;1.00;;;;;;5037700;28;20420;-79
2022/06/27 08:44:16;;;;;;;14.10;8.40;;;31.90;1.00;;;;;;5047598;28;20485;-78
2022/06/27 08:46:46;;;;;;;8.13;6.43;;;31.90;1.00;;;;;;5049977;28;20451;-78
2022/06/27 08:49:14;;;;;;;10.63;7.00;;;32.00;1.00;;;;;;5047711;28;20572;-80
2022/06/27 08:51:43;;;;;;;6.67;5.93;;;32.00;1.00;;;;;;5047087;28;21333;-80
2022/06/27 08:54:11;;;;;;;7.57;6.13;;;31.90;1.00;;;;;;5064129;28;20470;-79
2022/06/27 08:56:39;;;;;;;10.27;6.73;;;32.00;1.00;;;;;;5048682;28;20800;-78
2022/06/27 08:59:06;;;;;;;5.87;5.17;;;32.10;1.00;;;;;;5052693;28;20501;-80
2022/06/27 09:01:33;;;;;;;9.90;5.93;;;32.00;1.00;;;;;;5050478;28;20464;-80
2022/06/27 09:04:01;;;;;;;7.00;6.30;;;32.00;1.00;;;;;;5048743;28;20456;-78
2022/06/27 09:06:32;;;;;;;7.83;5.43;;;32.10;1.00;;;;;;5049121;28;21003;-76
2022/06/27 09:09:12;;;;;;;7.00;5.50;;;32.10;1.00;;;;;;5043182;28;20743;-80
2022/06/27 09:11:42;;;;;;;8.80;5.90;;;32.10;1.00;;;;;;5051209;28;20451;-79
2022/06/27 09:14:35;;;;;;;9.27;6.10;;;32.30;1.00;;;;;;5045776;28;20543;-79
2022/06/27 09:17:04;;;;;;;6.80;6.10;;;32.60;1.00;;;;;;5047281;28;20980;-79
2022/06/27 09:19:47;;;;;;;7.13;6.27;;;32.60;1.00;;;;;;5039967;28;21261;-79
2022/06/27 09:22:17;;;;;;;7.77;6.97;;;32.60;1.00;;;;;;5048735;28;20542;-81
2022/06/27 09:25:06;;;;;;;6.03;5.43;;;32.70;1.00;;;;;;5038091;28;20451;-79
2022/06/27 09:27:44;;;;;;;7.03;5.27;;;32.70;1.00;;;;;;5049774;28;20606;-79
2022/06/27 09:30:26;;;;;;;7.30;5.77;;;33.00;1.00;;;;;;5044796;28;21080;-80
2022/06/27 09:32:56;;;;;;;6.80;5.63;;;33.10;1.00;;;;;;5045049;27;20452;-77
2022/06/27 09:35:25;;;;;;;8.30;5.53;;;33.10;1.00;;;;;;5036173;28;20478;-77
2022/06/27 09:37:53;;;;;;;6.90;6.20;;;33.30;1.00;;;;;;5074705;28;20559;-77
2022/06/27 09:40:25;;;;;;;9.30;6.00;;;33.50;1.00;;;;;;5046769;28;20444;-78
2022/06/27 09:42:57;;;;;;;5.97;5.47;;;34.00;1.00;;;;;;5053061;28;20499;-78
2022/06/27 09:45:25;;;;;;;6.70;5.17;;;35.10;1.00;;;;;;5070708;28;20462;-78
2022/06/27 09:47:58;;;;;;;6.33;4.50;;;36.60;1.00;;;;;;5047230;28;20613;-77
2022/06/27 09:50:27;;;;;;;5.80;4.30;;;37.70;1.00;;;;;;5047486;28;20535;-78
2022/06/27 09:52:55;;;;;;;4.43;4.03;;;38.50;1.00;;;;;;5045933;28;21718;-78
2022/06/27 09:55:23;;;;;;;10.00;4.53;;;39.40;1.00;;;;;;5044068;28;20560;-77
2022/06/27 09:57:51;;;;;;;6.97;4.10;;;39.70;1.00;;;;;;5042915;28;20530;-78
2022/06/27 10:00:22;;;;;;;7.43;4.50;;;39.70;1.00;;;;;;5047576;28;20482;-79
2022/06/27 10:02:51;;;;;;;5.10;4.40;;;40.10;1.00;;;;;;5044310;28;20475;-78
2022/06/27 10:05:20;;;;;;;4.30;3.90;;;40.60;1.00;;;;;;5062123;28;20548;-78
2022/06/27 10:07:55;;;;;;;4.50;4.10;;;40.90;1.00;;;;;;5045836;28;21081;-78
2022/06/27 10:10:22;;;;;;;5.30;4.80;;;41.20;1.00;;;;;;5049894;28;20460;-78
2022/06/27 10:12:59;;;;;;;5.07;4.50;;;40.90;1.00;;;;;;5051564;28;20982;-78
2022/06/27 10:15:29;;;;;;;4.43;4.03;;;40.20;1.00;;;;;;5046001;28;20518;-78
2022/06/27 10:18:02;;;;;;;5.07;4.57;;;40.20;1.00;;;;;;5042289;28;20583;-79
2022/06/27 10:20:35;;;;;;;4.07;3.47;;;40.80;1.00;;;;;;5045072;28;20920;-79
2022/06/27 10:23:31;;;;;;;4.33;3.93;;;41.80;1.00;;;;;;5039583;28;20454;-79
2022/06/27 10:26:01;;;;;;;4.00;3.60;;;41.90;1.00;;;;;;5046935;28;20455;-79
2022/06/27 10:28:27;;;;;;;6.10;3.13;;;41.80;1.00;;;;;;5044016;28;20850;-80
2022/06/27 10:30:57;;;;;;;8.33;3.40;;;42.00;1.00;;;;;;5047589;28;20471;-79
2022/06/27 10:33:41;;;;;;;4.60;4.00;;;41.90;1.00;;;;;;5047854;28;20457;-80
2022/06/27 10:36:16;;;;;;;8.80;3.73;;;42.50;1.00;;;;;;5046207;28;20476;-78
2022/06/27 10:38:57;;;;;;;3.90;3.50;;;42.90;1.00;;;;;;5055796;28;20490;-79
2022/06/27 10:41:42;;;;;;;4.73;4.17;;;43.10;1.00;;;;;;5051555;28;20994;-79
2022/06/27 10:44:31;;;;;;;4.30;3.90;;;43.40;1.00;;;;;;5035833;28;21034;-79
2022/06/27 10:47:01;;;;;;;4.67;4.27;;;43.80;1.00;;;;;;5049869;28;20547;-80
2022/06/27 10:49:31;;;;;;;3.97;3.43;;;43.10;1.00;;;;;;5050397;28;20499;-78
2022/06/27 10:52:26;;;;;;;4.00;3.60;;;43.60;1.00;;;;;;5044079;28;20460;-79
2022/06/27 10:54:54;;;;;;;5.00;3.60;;;44.10;1.00;;;;;;5042456;28;20998;-80
2022/06/27 10:57:42;;;;;;;5.63;3.80;;;44.30;1.00;;;;;;5047341;28;20511;-79
2022/06/27 11:00:11;;;;;;;4.50;4.10;;;43.70;1.00;;;;;;5049460;28;20476;-80
2022/06/27 11:02:41;;;;;;;5.77;3.53;;;43.10;1.00;;;;;;5046197;28;21217;-78
2022/06/27 11:05:08;;;;;;;5.37;3.90;;;43.30;1.00;;;;;;5047824;28;20440;-80
2022/06/27 11:07:35;;;;;;;4.07;3.30;;;44.40;1.00;;;;;;5049509;28;20499;-80
2022/06/27 11:10:02;;;;;;;5.57;3.70;;;44.90;1.00;;;;;;5047011;28;20487;-78
2022/06/27 11:12:36;;;;;;;4.53;3.70;;;44.70;1.00;;;;;;5050051;28;20452;-78
2022/06/27 11:15:05;;;;;;;4.50;3.77;;;44.30;1.00;;;;;;5047182;28;20462;-77
2022/06/27 11:17:38;;;;;;;5.27;4.23;;;44.50;1.00;;;;;;5053238;28;20550;-76
2022/06/27 11:20:21;;;;;;;4.33;3.93;;;45.50;1.00;;;;;;5051517;27;20459;-77
2022/06/27 11:22:51;;;;;;;5.10;4.23;;;45.40;1.00;;;;;;5064270;28;20457;-77
2022/06/27 11:25:21;;;;;;;4.60;4.20;;;44.70;1.00;;;;;;5047932;28;20500;-77
2022/06/27 11:27:51;;;;;;;6.90;4.87;;;43.90;1.00;;;;;;5042752;28;20954;-77
2022/06/27 11:33:17;;;;;;;4.47;4.07;;;43.30;1.00;;;;;;5047797;28;20471;-78
2022/06/27 11:35:46;;;;;;;4.93;4.53;;;44.40;1.00;;;;;;5049303;28;20460;-77
2022/06/27 11:38:14;;;;;;;4.97;3.90;;;45.90;1.00;;;;;;5046688;28;20560;-77
2022/06/27 11:40:40;;;;;;;4.50;4.10;;;47.30;1.00;;;;;;5045304;27;21140;-78
2022/06/27 11:43:08;;;;;;;4.50;3.33;;;47.70;1.00;;;;;;5044249;28;20476;-78
2022/06/27 11:45:42;;;;;;;4.30;3.60;;;47.00;1.00;;;;;;5044915;28;20461;-78
2022/06/27 11:48:15;;;;;;;3.87;3.57;;;46.50;1.00;;;;;;5045837;28;20610;-77
2022/06/27 11:50:43;;;;;;;4.43;4.03;;;46.80;1.00;;;;;;5046331;27;21031;-78
2022/06/27 11:53:11;;;;;;;4.60;3.67;;;46.20;1.00;;;;;;5050411;28;20487;-79
2022/06/27 11:55:41;;;;;;;4.17;3.60;;;45.60;1.00;;;;;;5045629;28;20512;-76
2022/06/27 11:58:11;;;;;;;4.70;3.77;;;45.30;1.00;;;;;;5045856;28;20447;-77
2022/06/27 12:00:39;;;;;;;4.37;3.90;;;44.80;1.00;;;;;;5042750;28;20436;-77
2022/06/27 12:03:08;;;;;;;4.93;3.90;;;45.00;1.00;;;;;;5046485;28;21110;-77
2022/06/27 12:05:36;;;;;;;3.57;3.27;;;45.90;1.00;;;;;;5046607;28;20612;-78
2022/06/27 12:08:06;;;;;;;5.40;3.33;;;47.00;1.00;;;;;;5048258;28;20585;-76
2022/06/27 12:10:44;;;;;;;4.10;3.80;;;45.60;1.00;;;;;;5041558;28;21006;-78
2022/06/27 12:13:14;;;;;;;4.77;3.50;;;43.80;1.00;;;;;;5042327;27;20526;-77
2022/06/27 12:15:44;;;;;;;5.10;4.60;;;43.90;1.00;;;;;;5040972;28;20467;-77
2022/06/27 12:18:12;;;;;;;4.10;3.70;;;45.20;1.00;;;;;;5044240;28;20449;-78
2022/06/27 12:20:41;;;;;;;3.73;3.33;;;45.80;1.00;;;;;;5048295;28;20921;-78
2022/06/27 12:23:08;;;;;;;3.83;3.50;;;45.70;1.00;;;;;;5046155;28;20861;-77
2022/06/27 12:25:36;;;;;;;3.47;3.17;;;45.90;1.00;;;;;;5044634;28;21062;-78
2022/06/27 12:28:05;;;;;;;4.13;3.73;;;45.80;1.00;;;;;;5041583;28;20461;-78
2022/06/27 12:30:33;;;;;;;4.50;3.43;;;45.80;1.00;;;;;;5040942;28;20491;-78
2022/06/27 12:33:01;;;;;;;4.17;3.77;;;46.50;1.00;;;;;;5042359;28;20987;-77
2022/06/27 12:35:28;;;;;;;4.07;3.77;;;47.30;1.00;;;;;;5046067;28;20879;-77
2022/06/27 12:38:01;;;;;;;4.00;3.20;;;48.20;1.00;;;;;;5046679;28;20911;-76
2022/06/27 12:40:28;;;;;;;3.40;3.10;;;48.70;1.00;;;;;;5045427;28;20476;-77
2022/06/27 12:42:56;;;;;;;11.43;3.80;;;48.60;1.00;;;;;;5046411;28;20951;-78
2022/06/27 12:45:25;;;;;;;4.27;3.37;;;47.60;1.00;;;;;;5047612;27;20448;-78
2022/06/27 12:47:52;;;;;;;3.70;3.40;;;47.00;1.00;;;;;;5047595;28;20483;-79
2022/06/27 12:50:19;;;;;;;3.73;3.43;;;47.20;1.00;;;;;;5039710;28;20645;-78
2022/06/27 12:52:46;;;;;;;3.47;3.13;;;46.70;1.00;;;;;;5047437;28;20521;-78
2022/06/27 12:55:13;;;;;;;4.63;4.27;;;46.80;1.00;;;;;;5047668;28;21008;-78
2022/06/27 12:57:40;;;;;;;4.93;3.40;;;46.90;1.00;;;;;;5052400;28;20984;-79
2022/06/27 13:00:08;;;;;;;4.70;4.10;;;47.50;1.00;;;;;;5051013;28;20564;-78
2022/06/27 13:02:37;;;;;;;4.17;3.30;;;47.50;1.00;;;;;;5066334;28;20457;-77